Terminal Aerodrome Forecast
Issued by NWS Greer, SC

Home | Current Version | Previous Version | Text Only | Print | Product List | Glossary On
Versions: 1 2 3 4 5 6 7 8 9 10 11 12 13 14 15 16 17 18
000
FTUS42 KGSP 271142
TAFAVL
TAF
KAVL 271142Z 2712/2812 00000KT P6SM FEW050 BKN250
     FM271300 32007KT P6SM SCT050 BKN250
     FM271900 31011KT P6SM VCTS SCT040CB BKN070
     FM280000 34006KT P6SM BKN060=

USA.gov is the U.S. government's official web portal to all federal, state and local government web resources and services.